sensor_id;sensor_type;location;lat;lon;timestamp;P1;durP1;ratioP1;P2;durP2;ratioP2
28170;SDS011;15458;53.346;-1.688;2023-07-31T00:00:26;2.47;;;1.20;;
28170;SDS011;15458;53.346;-1.688;2023-07-31T00:02:52;2.05;;;1.30;;
28170;SDS011;15458;53.346;-1.688;2023-07-31T00:05:18;1.50;;;1.10;;
28170;SDS011;15458;53.346;-1.688;2023-07-31T00:07:43;2.13;;;1.30;;
28170;SDS011;15458;53.346;-1.688;2023-07-31T00:10:09;3.72;;;1.00;;
28170;SDS011;15458;53.346;-1.688;2023-07-31T00:12:35;2.17;;;0.80;;
28170;SDS011;15458;53.346;-1.688;2023-07-31T00:15:01;2.35;;;1.00;;
28170;SDS011;15458;53.346;-1.688;2023-07-31T00:17:27;2.45;;;1.15;;
28170;SDS011;15458;53.346;-1.688;2023-07-31T00:19:53;1.80;;;0.85;;
28170;SDS011;15458;53.346;-1.688;2023-07-31T00:22:19;2.00;;;0.70;;
28170;SDS011;15458;53.346;-1.688;2023-07-31T00:24:44;4.53;;;0.90;;
28170;SDS011;15458;53.346;-1.688;2023-07-31T00:27:10;1.65;;;0.80;;
28170;SDS011;15458;53.346;-1.688;2023-07-31T00:29:35;1.80;;;1.35;;
28170;SDS011;15458;53.346;-1.688;2023-07-31T00:32:01;1.92;;;0.63;;
28170;SDS011;15458;53.346;-1.688;2023-07-31T00:34:27;1.27;;;0.90;;
28170;SDS011;15458;53.346;-1.688;2023-07-31T00:36:52;1.65;;;0.90;;
28170;SDS011;15458;53.346;-1.688;2023-07-31T00:39:18;2.28;;;0.93;;
28170;SDS011;15458;53.346;-1.688;2023-07-31T00:41:44;2.17;;;0.90;;
28170;SDS011;15458;53.346;-1.688;2023-07-31T00:44:09;1.25;;;0.60;;
28170;SDS011;15458;53.346;-1.688;2023-07-31T00:46:35;1.42;;;0.63;;
28170;SDS011;15458;53.346;-1.688;2023-07-31T00:49:01;4.10;;;0.70;;
28170;SDS011;15458;53.346;-1.688;2023-07-31T00:51:27;3.85;;;0.70;;
28170;SDS011;15458;53.346;-1.688;2023-07-31T00:53:53;1.98;;;0.65;;
28170;SDS011;15458;53.346;-1.688;2023-07-31T00:56:21;0.77;;;0.57;;
28170;SDS011;15458;53.346;-1.688;2023-07-31T00:58:48;2.53;;;0.68;;
28170;SDS011;15458;53.346;-1.688;2023-07-31T01:01:14;3.53;;;0.80;;
28170;SDS011;15458;53.346;-1.688;2023-07-31T01:03:40;2.25;;;0.70;;
28170;SDS011;15458;53.346;-1.688;2023-07-31T01:08:58;1.08;;;0.60;;
28170;SDS011;15458;53.346;-1.688;2023-07-31T01:11:39;0.90;;;0.50;;
28170;SDS011;15458;53.346;-1.688;2023-07-31T01:14:13;0.50;;;0.50;;
28170;SDS011;15458;53.346;-1.688;2023-07-31T01:16:39;2.63;;;0.80;;
28170;SDS011;15458;53.346;-1.688;2023-07-31T01:19:05;1.63;;;0.60;;
28170;SDS011;15458;53.346;-1.688;2023-07-31T01:27:30;1.00;;;0.70;;
28170;SDS011;15458;53.346;-1.688;2023-07-31T01:30:21;1.45;;;0.95;;
28170;SDS011;15458;53.346;-1.688;2023-07-31T01:32:50;2.38;;;0.73;;
28170;SDS011;15458;53.346;-1.688;2023-07-31T01:35:18;1.10;;;1.00;;
28170;SDS011;15458;53.346;-1.688;2023-07-31T01:37:43;0.73;;;0.60;;
28170;SDS011;15458;53.346;-1.688;2023-07-31T01:40:10;0.93;;;0.88;;
28170;SDS011;15458;53.346;-1.688;2023-07-31T01:42:36;1.40;;;0.80;;
28170;SDS011;15458;53.346;-1.688;2023-07-31T01:45:01;2.42;;;1.08;;
28170;SDS011;15458;53.346;-1.688;2023-07-31T01:47:27;0.85;;;0.85;;
28170;SDS011;15458;53.346;-1.688;2023-07-31T01:49:53;2.28;;;1.00;;
28170;SDS011;15458;53.346;-1.688;2023-07-31T01:52:18;2.15;;;1.15;;
28170;SDS011;15458;53.346;-1.688;2023-07-31T01:54:44;2.75;;;1.20;;
28170;SDS011;15458;53.346;-1.688;2023-07-31T01:57:10;2.65;;;1.00;;
28170;SDS011;15458;53.346;-1.688;2023-07-31T01:59:35;1.30;;;1.20;;
28170;SDS011;15458;53.346;-1.688;2023-07-31T02:02:01;2.38;;;1.38;;
28170;SDS011;15458;53.346;-1.688;2023-07-31T02:04:27;5.40;;;2.00;;
28170;SDS011;15458;53.346;-1.688;2023-07-31T02:06:53;2.55;;;1.70;;
28170;SDS011;15458;53.346;-1.688;2023-07-31T02:09:19;4.57;;;1.50;;
28170;SDS011;15458;53.346;-1.688;2023-07-31T02:11:44;2.05;;;1.33;;
28170;SDS011;15458;53.346;-1.688;2023-07-31T02:14:10;1.40;;;1.10;;
28170;SDS011;15458;53.346;-1.688;2023-07-31T02:16:35;2.63;;;1.33;;
28170;SDS011;15458;53.346;-1.688;2023-07-31T02:19:01;1.33;;;1.23;;
28170;SDS011;15458;53.346;-1.688;2023-07-31T02:21:26;1.95;;;1.65;;
28170;SDS011;15458;53.346;-1.688;2023-07-31T02:23:52;3.00;;;1.55;;
28170;SDS011;15458;53.346;-1.688;2023-07-31T02:26:18;2.38;;;1.77;;
28170;SDS011;15458;53.346;-1.688;2023-07-31T02:28:43;2.78;;;1.55;;
28170;SDS011;15458;53.346;-1.688;2023-07-31T02:31:09;1.38;;;1.25;;
28170;SDS011;15458;53.346;-1.688;2023-07-31T02:33:35;1.88;;;1.60;;
28170;SDS011;15458;53.346;-1.688;2023-07-31T02:36:00;2.10;;;1.20;;
28170;SDS011;15458;53.346;-1.688;2023-07-31T02:38:26;1.48;;;1.30;;
28170;SDS011;15458;53.346;-1.688;2023-07-31T02:40:51;1.42;;;1.20;;
28170;SDS011;15458;53.346;-1.688;2023-07-31T02:43:17;1.40;;;1.30;;
28170;SDS011;15458;53.346;-1.688;2023-07-31T02:45:43;2.00;;;1.80;;
28170;SDS011;15458;53.346;-1.688;2023-07-31T02:48:08;2.25;;;1.30;;
28170;SDS011;15458;53.346;-1.688;2023-07-31T02:50:34;4.38;;;2.40;;
28170;SDS011;15458;53.346;-1.688;2023-07-31T02:53:00;1.52;;;1.42;;
28170;SDS011;15458;53.346;-1.688;2023-07-31T02:55:25;2.28;;;1.20;;
28170;SDS011;15458;53.346;-1.688;2023-07-31T02:57:51;1.48;;;1.15;;
28170;SDS011;15458;53.346;-1.688;2023-07-31T03:00:17;1.30;;;1.20;;
28170;SDS011;15458;53.346;-1.688;2023-07-31T03:02:43;1.98;;;1.30;;
28170;SDS011;15458;53.346;-1.688;2023-07-31T03:05:08;1.58;;;1.00;;
28170;SDS011;15458;53.346;-1.688;2023-07-31T03:07:34;0.98;;;0.95;;
28170;SDS011;15458;53.346;-1.688;2023-07-31T03:10:00;1.67;;;1.00;;
28170;SDS011;15458;53.346;-1.688;2023-07-31T03:12:25;2.63;;;1.00;;
28170;SDS011;15458;53.346;-1.688;2023-07-31T03:14:51;0.98;;;0.95;;
28170;SDS011;15458;53.346;-1.688;2023-07-31T03:17:17;1.10;;;1.00;;
28170;SDS011;15458;53.346;-1.688;2023-07-31T03:19:42;1.02;;;0.90;;
28170;SDS011;15458;53.346;-1.688;2023-07-31T03:22:08;0.68;;;0.68;;
28170;SDS011;15458;53.346;-1.688;2023-07-31T03:24:34;1.52;;;0.80;;
28170;SDS011;15458;53.346;-1.688;2023-07-31T03:26:59;1.83;;;0.50;;
28170;SDS011;15458;53.346;-1.688;2023-07-31T03:29:25;3.90;;;0.65;;
28170;SDS011;15458;53.346;-1.688;2023-07-31T03:31:50;5.85;;;0.63;;
28170;SDS011;15458;53.346;-1.688;2023-07-31T03:34:16;2.60;;;0.60;;
28170;SDS011;15458;53.346;-1.688;2023-07-31T03:36:42;0.70;;;0.70;;
28170;SDS011;15458;53.346;-1.688;2023-07-31T03:39:08;1.00;;;0.90;;
28170;SDS011;15458;53.346;-1.688;2023-07-31T03:41:33;0.98;;;0.60;;
28170;SDS011;15458;53.346;-1.688;2023-07-31T03:43:59;0.82;;;0.40;;
28170;SDS011;15458;53.346;-1.688;2023-07-31T03:46:24;0.90;;;0.50;;
28170;SDS011;15458;53.346;-1.688;2023-07-31T03:48:50;1.90;;;0.82;;
28170;SDS011;15458;53.346;-1.688;2023-07-31T03:51:16;6.13;;;0.80;;
28170;SDS011;15458;53.346;-1.688;2023-07-31T03:53:43;1.52;;;0.60;;
28170;SDS011;15458;53.346;-1.688;2023-07-31T03:56:09;0.55;;;0.50;;
28170;SDS011;15458;53.346;-1.688;2023-07-31T03:58:34;1.83;;;0.73;;
28170;SDS011;15458;53.346;-1.688;2023-07-31T04:01:01;0.80;;;0.60;;
28170;SDS011;15458;53.346;-1.688;2023-07-31T04:03:28;0.88;;;0.65;;
28170;SDS011;15458;53.346;-1.688;2023-07-31T04:05:54;1.20;;;0.80;;
28170;SDS011;15458;53.346;-1.688;2023-07-31T04:08:23;1.13;;;0.80;;
28170;SDS011;15458;53.346;-1.688;2023-07-31T04:10:48;1.05;;;0.73;;
28170;SDS011;15458;53.346;-1.688;2023-07-31T04:13:14;2.33;;;0.63;;
28170;SDS011;15458;53.346;-1.688;2023-07-31T04:15:41;1.25;;;0.95;;
28170;SDS011;15458;53.346;-1.688;2023-07-31T04:18:07;1.38;;;0.80;;
28170;SDS011;15458;53.346;-1.688;2023-07-31T04:20:33;2.13;;;0.80;;
28170;SDS011;15458;53.346;-1.688;2023-07-31T04:22:59;1.60;;;1.02;;
28170;SDS011;15458;53.346;-1.688;2023-07-31T04:25:24;2.13;;;1.23;;
28170;SDS011;15458;53.346;-1.688;2023-07-31T04:27:50;1.98;;;1.20;;
28170;SDS011;15458;53.346;-1.688;2023-07-31T04:30:15;2.63;;;1.05;;
28170;SDS011;15458;53.346;-1.688;2023-07-31T04:32:41;1.70;;;0.90;;
28170;SDS011;15458;53.346;-1.688;2023-07-31T04:35:07;2.67;;;1.00;;
28170;SDS011;15458;53.346;-1.688;2023-07-31T04:37:32;1.48;;;0.90;;
28170;SDS011;15458;53.346;-1.688;2023-07-31T04:39:58;2.40;;;1.00;;
28170;SDS011;15458;53.346;-1.688;2023-07-31T04:42:24;1.25;;;0.77;;
28170;SDS011;15458;53.346;-1.688;2023-07-31T04:44:50;2.70;;;1.08;;
28170;SDS011;15458;53.346;-1.688;2023-07-31T04:47:15;1.95;;;1.10;;
28170;SDS011;15458;53.346;-1.688;2023-07-31T04:49:41;1.52;;;1.00;;
28170;SDS011;15458;53.346;-1.688;2023-07-31T04:52:06;2.55;;;1.10;;
28170;SDS011;15458;53.346;-1.688;2023-07-31T04:54:32;2.45;;;1.08;;
28170;SDS011;15458;53.346;-1.688;2023-07-31T04:56:58;1.95;;;1.15;;
28170;SDS011;15458;53.346;-1.688;2023-07-31T04:59:23;1.75;;;0.90;;
28170;SDS011;15458;53.346;-1.688;2023-07-31T05:01:49;4.72;;;1.30;;
28170;SDS011;15458;53.346;-1.688;2023-07-31T05:04:14;4.28;;;1.20;;
28170;SDS011;15458;53.346;-1.688;2023-07-31T05:06:40;1.25;;;1.10;;
28170;SDS011;15458;53.346;-1.688;2023-07-31T05:09:06;2.15;;;1.15;;
28170;SDS011;15458;53.346;-1.688;2023-07-31T05:11:34;1.58;;;1.08;;
28170;SDS011;15458;53.346;-1.688;2023-07-31T05:14:00;2.10;;;0.93;;
28170;SDS011;15458;53.346;-1.688;2023-07-31T05:16:25;1.75;;;1.20;;
28170;SDS011;15458;53.346;-1.688;2023-07-31T05:18:51;3.72;;;1.20;;
28170;SDS011;15458;53.346;-1.688;2023-07-31T05:21:17;3.40;;;1.20;;
28170;SDS011;15458;53.346;-1.688;2023-07-31T05:23:42;1.58;;;1.17;;
28170;SDS011;15458;53.346;-1.688;2023-07-31T05:26:08;3.85;;;1.75;;
28170;SDS011;15458;53.346;-1.688;2023-07-31T05:28:36;4.28;;;1.63;;
28170;SDS011;15458;53.346;-1.688;2023-07-31T05:31:03;6.07;;;1.77;;
28170;SDS011;15458;53.346;-1.688;2023-07-31T05:33:29;4.18;;;1.60;;
28170;SDS011;15458;53.346;-1.688;2023-07-31T05:35:55;2.20;;;1.20;;
28170;SDS011;15458;53.346;-1.688;2023-07-31T05:38:21;2.15;;;1.33;;
28170;SDS011;15458;53.346;-1.688;2023-07-31T05:40:47;3.88;;;1.20;;
28170;SDS011;15458;53.346;-1.688;2023-07-31T05:43:13;3.03;;;1.48;;
28170;SDS011;15458;53.346;-1.688;2023-07-31T05:45:39;5.55;;;1.50;;
28170;SDS011;15458;53.346;-1.688;2023-07-31T05:48:06;3.83;;;1.40;;
28170;SDS011;15458;53.346;-1.688;2023-07-31T05:50:32;4.75;;;1.80;;
28170;SDS011;15458;53.346;-1.688;2023-07-31T05:52:59;3.05;;;1.70;;
28170;SDS011;15458;53.346;-1.688;2023-07-31T05:55:24;7.28;;;1.95;;
28170;SDS011;15458;53.346;-1.688;2023-07-31T05:57:54;5.78;;;2.08;;
28170;SDS011;15458;53.346;-1.688;2023-07-31T06:00:19;3.70;;;2.10;;
28170;SDS011;15458;53.346;-1.688;2023-07-31T06:02:46;4.32;;;2.13;;
28170;SDS011;15458;53.346;-1.688;2023-07-31T06:05:12;7.57;;;2.42;;
28170;SDS011;15458;53.346;-1.688;2023-07-31T06:07:38;6.10;;;2.63;;
28170;SDS011;15458;53.346;-1.688;2023-07-31T06:10:04;4.10;;;2.28;;
28170;SDS011;15458;53.346;-1.688;2023-07-31T06:12:33;4.68;;;1.95;;
28170;SDS011;15458;53.346;-1.688;2023-07-31T06:15:00;4.97;;;2.15;;
28170;SDS011;15458;53.346;-1.688;2023-07-31T06:17:27;4.97;;;2.20;;
28170;SDS011;15458;53.346;-1.688;2023-07-31T06:19:54;5.53;;;2.17;;
28170;SDS011;15458;53.346;-1.688;2023-07-31T06:22:19;6.28;;;2.60;;
28170;SDS011;15458;53.346;-1.688;2023-07-31T06:24:46;7.07;;;2.20;;
28170;SDS011;15458;53.346;-1.688;2023-07-31T06:27:11;8.00;;;3.40;;
28170;SDS011;15458;53.346;-1.688;2023-07-31T06:29:37;7.07;;;2.90;;
28170;SDS011;15458;53.346;-1.688;2023-07-31T06:32:03;9.75;;;3.38;;
28170;SDS011;15458;53.346;-1.688;2023-07-31T06:34:29;7.40;;;3.70;;
28170;SDS011;15458;53.346;-1.688;2023-07-31T06:36:55;6.72;;;2.95;;
28170;SDS011;15458;53.346;-1.688;2023-07-31T06:39:21;9.10;;;3.97;;
28170;SDS011;15458;53.346;-1.688;2023-07-31T06:41:47;7.50;;;2.55;;
28170;SDS011;15458;53.346;-1.688;2023-07-31T06:44:12;8.02;;;3.03;;
28170;SDS011;15458;53.346;-1.688;2023-07-31T06:46:38;8.88;;;2.97;;
28170;SDS011;15458;53.346;-1.688;2023-07-31T06:49:03;12.45;;;3.80;;
28170;SDS011;15458;53.346;-1.688;2023-07-31T06:51:29;8.57;;;3.13;;
28170;SDS011;15458;53.346;-1.688;2023-07-31T06:53:56;8.30;;;3.20;;
28170;SDS011;15458;53.346;-1.688;2023-07-31T06:56:25;6.72;;;3.00;;
28170;SDS011;15458;53.346;-1.688;2023-07-31T06:58:51;12.32;;;3.90;;
28170;SDS011;15458;53.346;-1.688;2023-07-31T07:01:16;9.10;;;3.58;;
28170;SDS011;15458;53.346;-1.688;2023-07-31T07:03:42;9.27;;;3.20;;
28170;SDS011;15458;53.346;-1.688;2023-07-31T07:06:08;12.20;;;4.00;;
28170;SDS011;15458;53.346;-1.688;2023-07-31T07:08:34;7.22;;;2.85;;
28170;SDS011;15458;53.346;-1.688;2023-07-31T07:10:59;8.05;;;3.00;;
28170;SDS011;15458;53.346;-1.688;2023-07-31T07:13:25;12.35;;;3.72;;
28170;SDS011;15458;53.346;-1.688;2023-07-31T07:15:51;8.40;;;3.03;;
28170;SDS011;15458;53.346;-1.688;2023-07-31T07:18:17;10.13;;;3.70;;
28170;SDS011;15458;53.346;-1.688;2023-07-31T07:20:47;8.57;;;3.35;;
28170;SDS011;15458;53.346;-1.688;2023-07-31T07:23:14;10.95;;;3.22;;
28170;SDS011;15458;53.346;-1.688;2023-07-31T07:25:40;11.18;;;3.25;;
28170;SDS011;15458;53.346;-1.688;2023-07-31T07:28:05;7.85;;;3.35;;
28170;SDS011;15458;53.346;-1.688;2023-07-31T07:30:31;8.07;;;3.10;;
28170;SDS011;15458;53.346;-1.688;2023-07-31T07:32:57;7.63;;;3.00;;
28170;SDS011;15458;53.346;-1.688;2023-07-31T07:35:22;7.38;;;2.70;;
28170;SDS011;15458;53.346;-1.688;2023-07-31T07:37:48;11.32;;;3.60;;
28170;SDS011;15458;53.346;-1.688;2023-07-31T07:40:17;9.80;;;3.00;;
28170;SDS011;15458;53.346;-1.688;2023-07-31T07:42:42;11.00;;;3.60;;
28170;SDS011;15458;53.346;-1.688;2023-07-31T07:45:08;7.70;;;3.13;;
28170;SDS011;15458;53.346;-1.688;2023-07-31T07:47:34;11.73;;;3.85;;
28170;SDS011;15458;53.346;-1.688;2023-07-31T07:50:00;7.85;;;3.28;;
28170;SDS011;15458;53.346;-1.688;2023-07-31T07:52:25;10.07;;;3.17;;
28170;SDS011;15458;53.346;-1.688;2023-07-31T07:54:51;10.10;;;3.10;;
28170;SDS011;15458;53.346;-1.688;2023-07-31T07:57:17;9.95;;;3.08;;
28170;SDS011;15458;53.346;-1.688;2023-07-31T07:59:43;10.40;;;3.50;;
28170;SDS011;15458;53.346;-1.688;2023-07-31T08:02:09;6.80;;;2.65;;
28170;SDS011;15458;53.346;-1.688;2023-07-31T08:04:34;8.70;;;3.65;;
28170;SDS011;15458;53.346;-1.688;2023-07-31T08:07:00;13.20;;;3.80;;
28170;SDS011;15458;53.346;-1.688;2023-07-31T08:09:26;10.75;;;3.00;;
28170;SDS011;15458;53.346;-1.688;2023-07-31T08:11:51;11.48;;;3.00;;
28170;SDS011;15458;53.346;-1.688;2023-07-31T08:14:17;9.98;;;3.05;;
28170;SDS011;15458;53.346;-1.688;2023-07-31T08:16:42;9.85;;;3.17;;
28170;SDS011;15458;53.346;-1.688;2023-07-31T08:19:08;12.18;;;3.38;;
28170;SDS011;15458;53.346;-1.688;2023-07-31T08:21:34;15.68;;;4.10;;
28170;SDS011;15458;53.346;-1.688;2023-07-31T08:23:59;6.90;;;3.40;;
28170;SDS011;15458;53.346;-1.688;2023-07-31T08:26:25;12.27;;;3.55;;
28170;SDS011;15458;53.346;-1.688;2023-07-31T08:28:50;6.65;;;3.28;;
28170;SDS011;15458;53.346;-1.688;2023-07-31T08:31:16;12.18;;;3.67;;
28170;SDS011;15458;53.346;-1.688;2023-07-31T08:33:43;12.38;;;3.92;;
28170;SDS011;15458;53.346;-1.688;2023-07-31T08:36:09;10.35;;;3.70;;
28170;SDS011;15458;53.346;-1.688;2023-07-31T08:38:34;13.85;;;4.32;;
28170;SDS011;15458;53.346;-1.688;2023-07-31T08:41:00;13.23;;;4.03;;
28170;SDS011;15458;53.346;-1.688;2023-07-31T08:43:27;12.60;;;3.80;;
28170;SDS011;15458;53.346;-1.688;2023-07-31T08:45:53;12.70;;;3.78;;
28170;SDS011;15458;53.346;-1.688;2023-07-31T08:48:20;12.18;;;3.75;;
28170;SDS011;15458;53.346;-1.688;2023-07-31T08:50:47;10.57;;;3.97;;
28170;SDS011;15458;53.346;-1.688;2023-07-31T08:53:13;10.68;;;3.70;;
28170;SDS011;15458;53.346;-1.688;2023-07-31T08:55:39;9.55;;;3.85;;
28170;SDS011;15458;53.346;-1.688;2023-07-31T08:58:05;12.93;;;3.47;;
28170;SDS011;15458;53.346;-1.688;2023-07-31T09:00:34;13.68;;;4.32;;
28170;SDS011;15458;53.346;-1.688;2023-07-31T09:03:14;13.93;;;3.40;;
28170;SDS011;15458;53.346;-1.688;2023-07-31T09:05:42;8.75;;;3.42;;
28170;SDS011;15458;53.346;-1.688;2023-07-31T09:08:10;10.45;;;3.83;;
28170;SDS011;15458;53.346;-1.688;2023-07-31T09:10:40;14.27;;;3.67;;
28170;SDS011;15458;53.346;-1.688;2023-07-31T09:13:07;11.60;;;3.22;;
28170;SDS011;15458;53.346;-1.688;2023-07-31T09:15:34;9.32;;;3.38;;
28170;SDS011;15458;53.346;-1.688;2023-07-31T09:18:00;9.98;;;3.80;;
28170;SDS011;15458;53.346;-1.688;2023-07-31T09:20:27;9.43;;;3.13;;
28170;SDS011;15458;53.346;-1.688;2023-07-31T09:22:54;8.40;;;3.15;;
28170;SDS011;15458;53.346;-1.688;2023-07-31T09:25:24;8.02;;;3.25;;
28170;SDS011;15458;53.346;-1.688;2023-07-31T09:27:57;10.70;;;2.75;;
28170;SDS011;15458;53.346;-1.688;2023-07-31T09:30:24;8.95;;;2.67;;
28170;SDS011;15458;53.346;-1.688;2023-07-31T09:32:51;10.13;;;2.70;;
28170;SDS011;15458;53.346;-1.688;2023-07-31T09:37:55;14.02;;;2.70;;
28170;SDS011;15458;53.346;-1.688;2023-07-31T09:40:41;9.75;;;2.75;;
28170;SDS011;15458;53.346;-1.688;2023-07-31T09:43:17;11.07;;;3.00;;
28170;SDS011;15458;53.346;-1.688;2023-07-31T09:45:44;7.55;;;2.78;;
28170;SDS011;15458;53.346;-1.688;2023-07-31T09:48:16;6.72;;;2.42;;
28170;SDS011;15458;53.346;-1.688;2023-07-31T09:50:47;6.07;;;2.83;;
28170;SDS011;15458;53.346;-1.688;2023-07-31T09:53:14;7.25;;;2.25;;
28170;SDS011;15458;53.346;-1.688;2023-07-31T09:55:41;8.90;;;2.70;;
28170;SDS011;15458;53.346;-1.688;2023-07-31T09:58:11;8.27;;;2.60;;
28170;SDS011;15458;53.346;-1.688;2023-07-31T10:00:37;8.68;;;2.85;;
28170;SDS011;15458;53.346;-1.688;2023-07-31T10:03:04;4.90;;;2.40;;
28170;SDS011;15458;53.346;-1.688;2023-07-31T10:05:33;8.40;;;2.40;;
28170;SDS011;15458;53.346;-1.688;2023-07-31T10:08:00;9.00;;;2.80;;
28170;SDS011;15458;53.346;-1.688;2023-07-31T10:10:26;9.60;;;2.85;;
28170;SDS011;15458;53.346;-1.688;2023-07-31T10:12:53;5.72;;;2.13;;
28170;SDS011;15458;53.346;-1.688;2023-07-31T10:15:20;11.32;;;2.50;;
28170;SDS011;15458;53.346;-1.688;2023-07-31T10:17:47;5.65;;;2.35;;
28170;SDS011;15458;53.346;-1.688;2023-07-31T10:20:14;5.20;;;2.08;;
28170;SDS011;15458;53.346;-1.688;2023-07-31T10:22:43;4.72;;;2.08;;
28170;SDS011;15458;53.346;-1.688;2023-07-31T10:25:12;6.93;;;2.17;;
28170;SDS011;15458;53.346;-1.688;2023-07-31T10:27:40;6.65;;;2.13;;
28170;SDS011;15458;53.346;-1.688;2023-07-31T10:30:07;8.27;;;2.03;;
28170;SDS011;15458;53.346;-1.688;2023-07-31T10:32:38;5.78;;;2.20;;
28170;SDS011;15458;53.346;-1.688;2023-07-31T10:35:05;8.93;;;2.50;;
28170;SDS011;15458;53.346;-1.688;2023-07-31T10:37:39;11.50;;;2.58;;
28170;SDS011;15458;53.346;-1.688;2023-07-31T10:40:17;6.82;;;2.17;;
28170;SDS011;15458;53.346;-1.688;2023-07-31T10:42:52;5.78;;;2.40;;
28170;SDS011;15458;53.346;-1.688;2023-07-31T10:48:13;7.20;;;2.70;;
28170;SDS011;15458;53.346;-1.688;2023-07-31T10:53:34;6.63;;;2.45;;
28170;SDS011;15458;53.346;-1.688;2023-07-31T10:56:00;8.48;;;2.30;;
28170;SDS011;15458;53.346;-1.688;2023-07-31T10:58:29;8.35;;;2.20;;
28170;SDS011;15458;53.346;-1.688;2023-07-31T11:00:59;9.25;;;2.42;;
28170;SDS011;15458;53.346;-1.688;2023-07-31T11:03:47;4.65;;;2.22;;
28170;SDS011;15458;53.346;-1.688;2023-07-31T11:06:14;6.00;;;1.98;;
28170;SDS011;15458;53.346;-1.688;2023-07-31T11:08:41;10.90;;;2.42;;
28170;SDS011;15458;53.346;-1.688;2023-07-31T11:11:09;4.57;;;1.90;;
28170;SDS011;15458;53.346;-1.688;2023-07-31T11:13:41;7.85;;;2.40;;
28170;SDS011;15458;53.346;-1.688;2023-07-31T11:18:34;9.52;;;2.42;;
28170;SDS011;15458;53.346;-1.688;2023-07-31T11:21:00;4.68;;;1.92;;
28170;SDS011;15458;53.346;-1.688;2023-07-31T11:23:26;4.10;;;1.80;;
28170;SDS011;15458;53.346;-1.688;2023-07-31T11:25:51;5.38;;;2.30;;
28170;SDS011;15458;53.346;-1.688;2023-07-31T11:28:18;6.50;;;2.33;;
28170;SDS011;15458;53.346;-1.688;2023-07-31T11:30:44;8.10;;;2.80;;
28170;SDS011;15458;53.346;-1.688;2023-07-31T11:33:12;9.93;;;2.65;;
28170;SDS011;15458;53.346;-1.688;2023-07-31T11:35:45;9.35;;;2.50;;
28170;SDS011;15458;53.346;-1.688;2023-07-31T11:38:22;7.90;;;3.05;;
28170;SDS011;15458;53.346;-1.688;2023-07-31T11:40:57;7.05;;;2.50;;
28170;SDS011;15458;53.346;-1.688;2023-07-31T11:43:24;10.65;;;2.58;;
28170;SDS011;15458;53.346;-1.688;2023-07-31T11:45:51;9.32;;;2.83;;
28170;SDS011;15458;53.346;-1.688;2023-07-31T11:48:23;7.05;;;2.55;;
28170;SDS011;15458;53.346;-1.688;2023-07-31T11:50:55;12.30;;;3.70;;
28170;SDS011;15458;53.346;-1.688;2023-07-31T11:53:27;9.27;;;3.05;;
28170;SDS011;15458;53.346;-1.688;2023-07-31T11:55:54;9.38;;;3.05;;
28170;SDS011;15458;53.346;-1.688;2023-07-31T11:58:22;4.90;;;2.63;;
28170;SDS011;15458;53.346;-1.688;2023-07-31T12:00:48;7.43;;;2.50;;
28170;SDS011;15458;53.346;-1.688;2023-07-31T12:03:14;8.68;;;2.47;;
28170;SDS011;15458;53.346;-1.688;2023-07-31T12:05:40;8.85;;;2.75;;
28170;SDS011;15458;53.346;-1.688;2023-07-31T12:08:12;7.40;;;2.72;;
28170;SDS011;15458;53.346;-1.688;2023-07-31T12:10:38;10.02;;;3.03;;
28170;SDS011;15458;53.346;-1.688;2023-07-31T12:13:07;6.18;;;2.45;;
28170;SDS011;15458;53.346;-1.688;2023-07-31T12:15:41;6.82;;;3.50;;
28170;SDS011;15458;53.346;-1.688;2023-07-31T12:21:00;8.88;;;2.53;;
28170;SDS011;15458;53.346;-1.688;2023-07-31T12:23:33;6.05;;;2.47;;
28170;SDS011;15458;53.346;-1.688;2023-07-31T12:28:29;8.23;;;2.80;;
28170;SDS011;15458;53.346;-1.688;2023-07-31T12:30:59;12.15;;;3.00;;
28170;SDS011;15458;53.346;-1.688;2023-07-31T12:33:30;8.27;;;3.70;;
28170;SDS011;15458;53.346;-1.688;2023-07-31T12:35:57;7.65;;;2.30;;
28170;SDS011;15458;53.346;-1.688;2023-07-31T12:38:23;11.27;;;2.60;;
28170;SDS011;15458;53.346;-1.688;2023-07-31T12:40:48;7.45;;;2.38;;
28170;SDS011;15458;53.346;-1.688;2023-07-31T12:43:15;9.23;;;2.83;;
28170;SDS011;15458;53.346;-1.688;2023-07-31T12:45:41;11.88;;;3.28;;
28170;SDS011;15458;53.346;-1.688;2023-07-31T12:48:06;6.90;;;2.78;;
28170;SDS011;15458;53.346;-1.688;2023-07-31T12:50:32;7.28;;;2.83;;
28170;SDS011;15458;53.346;-1.688;2023-07-31T12:52:58;10.88;;;2.90;;
28170;SDS011;15458;53.346;-1.688;2023-07-31T12:55:23;9.50;;;2.90;;
28170;SDS011;15458;53.346;-1.688;2023-07-31T12:57:49;9.25;;;2.88;;
28170;SDS011;15458;53.346;-1.688;2023-07-31T13:00:15;11.20;;;3.15;;
28170;SDS011;15458;53.346;-1.688;2023-07-31T13:02:41;10.57;;;3.35;;
28170;SDS011;15458;53.346;-1.688;2023-07-31T13:05:07;11.93;;;3.30;;
28170;SDS011;15458;53.346;-1.688;2023-07-31T13:07:33;11.05;;;2.88;;
28170;SDS011;15458;53.346;-1.688;2023-07-31T13:09:59;12.25;;;3.10;;
28170;SDS011;15458;53.346;-1.688;2023-07-31T13:12:25;14.88;;;3.30;;
28170;SDS011;15458;53.346;-1.688;2023-07-31T13:14:50;6.25;;;2.63;;
28170;SDS011;15458;53.346;-1.688;2023-07-31T13:17:16;8.23;;;2.58;;
28170;SDS011;15458;53.346;-1.688;2023-07-31T13:19:43;12.45;;;3.03;;
28170;SDS011;15458;53.346;-1.688;2023-07-31T13:22:09;11.45;;;2.65;;
28170;SDS011;15458;53.346;-1.688;2023-07-31T13:24:35;9.82;;;2.88;;
28170;SDS011;15458;53.346;-1.688;2023-07-31T13:27:01;14.02;;;3.35;;
28170;SDS011;15458;53.346;-1.688;2023-07-31T13:29:26;7.90;;;2.45;;
28170;SDS011;15458;53.346;-1.688;2023-07-31T13:31:52;12.52;;;2.58;;
28170;SDS011;15458;53.346;-1.688;2023-07-31T13:34:18;7.60;;;2.40;;
28170;SDS011;15458;53.346;-1.688;2023-07-31T13:36:44;8.55;;;3.15;;
28170;SDS011;15458;53.346;-1.688;2023-07-31T13:39:09;11.00;;;3.92;;
28170;SDS011;15458;53.346;-1.688;2023-07-31T13:41:35;10.50;;;2.85;;
28170;SDS011;15458;53.346;-1.688;2023-07-31T13:44:05;8.52;;;3.05;;
28170;SDS011;15458;53.346;-1.688;2023-07-31T13:46:30;14.00;;;2.97;;
28170;SDS011;15458;53.346;-1.688;2023-07-31T13:48:57;8.25;;;2.45;;
28170;SDS011;15458;53.346;-1.688;2023-07-31T13:51:24;15.30;;;2.78;;
28170;SDS011;15458;53.346;-1.688;2023-07-31T13:53:50;10.77;;;3.03;;
28170;SDS011;15458;53.346;-1.688;2023-07-31T13:56:16;7.07;;;2.25;;
28170;SDS011;15458;53.346;-1.688;2023-07-31T13:58:42;5.45;;;2.25;;
28170;SDS011;15458;53.346;-1.688;2023-07-31T14:01:08;7.95;;;2.80;;
28170;SDS011;15458;53.346;-1.688;2023-07-31T14:03:36;9.10;;;2.55;;
28170;SDS011;15458;53.346;-1.688;2023-07-31T14:06:02;8.35;;;2.30;;
28170;SDS011;15458;53.346;-1.688;2023-07-31T14:08:28;5.30;;;1.95;;
28170;SDS011;15458;53.346;-1.688;2023-07-31T14:10:54;7.85;;;2.22;;
28170;SDS011;15458;53.346;-1.688;2023-07-31T14:13:20;7.47;;;2.53;;
28170;SDS011;15458;53.346;-1.688;2023-07-31T14:15:49;6.65;;;2.55;;
28170;SDS011;15458;53.346;-1.688;2023-07-31T14:18:14;8.27;;;2.55;;
28170;SDS011;15458;53.346;-1.688;2023-07-31T14:20:43;4.93;;;2.20;;
28170;SDS011;15458;53.346;-1.688;2023-07-31T14:23:10;3.78;;;1.55;;
28170;SDS011;15458;53.346;-1.688;2023-07-31T14:25:37;10.07;;;2.70;;
28170;SDS011;15458;53.346;-1.688;2023-07-31T14:28:06;6.07;;;2.22;;
28170;SDS011;15458;53.346;-1.688;2023-07-31T14:30:32;8.20;;;2.70;;
28170;SDS011;15458;53.346;-1.688;2023-07-31T14:32:57;6.38;;;2.05;;
28170;SDS011;15458;53.346;-1.688;2023-07-31T14:35:25;6.45;;;2.15;;
28170;SDS011;15458;53.346;-1.688;2023-07-31T14:37:51;8.35;;;2.40;;
28170;SDS011;15458;53.346;-1.688;2023-07-31T14:40:16;6.78;;;2.60;;
28170;SDS011;15458;53.346;-1.688;2023-07-31T14:42:42;7.68;;;3.10;;
28170;SDS011;15458;53.346;-1.688;2023-07-31T14:45:08;4.90;;;1.75;;
28170;SDS011;15458;53.346;-1.688;2023-07-31T14:47:35;6.95;;;2.05;;
28170;SDS011;15458;53.346;-1.688;2023-07-31T14:50:02;5.88;;;1.95;;
28170;SDS011;15458;53.346;-1.688;2023-07-31T14:52:28;6.13;;;2.28;;
28170;SDS011;15458;53.346;-1.688;2023-07-31T14:54:54;8.95;;;2.80;;